Time;durP1;ratioP1;P1;durP2;ratioP2;P2;SDS_P1;SDS_P2;PMS_P1;PMS_P2;Temp;Humidity;BMP_temperature;BMP_pressure;BME280_temperature;BME280_humidity;BME280_pressure;Samples;Min_cycle;Max_cycle;Signal;HPM_P1;HPM_P2
2023/04/08 00:00:16;;;;;;;32.87;19.13;;;7.90;1.00;;;;;;4899852;29;20289;-95
2023/04/08 00:02:43;;;;;;;34.37;20.07;;;7.90;1.00;;;;;;4915177;29;20201;-95
2023/04/08 00:05:10;;;;;;;33.87;19.43;;;7.90;1.00;;;;;;4899848;29;20572;-95
2023/04/08 00:07:37;;;;;;;35.77;18.93;;;7.90;1.00;;;;;;4899665;29;20206;-95
2023/04/08 00:10:05;;;;;;;33.33;19.63;;;7.90;1.00;;;;;;4917783;29;20249;-94
2023/04/08 00:12:32;;;;;;;32.87;19.17;;;7.90;1.00;;;;;;4910721;29;20207;-96
2023/04/08 00:14:59;;;;;;;38.33;19.77;;;7.90;1.00;;;;;;4899387;29;20213;-96
2023/04/08 00:17:27;;;;;;;37.97;20.43;;;7.90;1.00;;;;;;4900219;29;20649;-96
2023/04/08 00:19:55;;;;;;;30.97;18.83;;;7.90;1.00;;;;;;4917710;29;20208;-95
2023/04/08 00:22:22;;;;;;;34.23;19.97;;;7.90;1.00;;;;;;4915073;29;20610;-96
2023/04/08 00:24:49;;;;;;;36.50;20.87;;;7.90;1.00;;;;;;4904262;29;20682;-96
2023/04/08 00:27:15;;;;;;;37.63;21.03;;;7.90;1.00;;;;;;4902839;29;20194;-96
2023/04/08 00:29:42;;;;;;;33.73;20.60;;;7.90;1.00;;;;;;4915912;29;20202;-96
2023/04/08 00:32:09;;;;;;;38.53;20.10;;;7.90;1.00;;;;;;4902022;29;20206;-96
2023/04/08 00:34:37;;;;;;;39.17;21.40;;;7.90;1.00;;;;;;4907975;29;20209;-96
2023/04/08 00:37:04;;;;;;;35.83;20.33;;;7.90;99.90;;;;;;4908820;29;20588;-96
2023/04/08 00:39:31;;;;;;;33.13;19.47;;;7.90;99.90;;;;;;4903221;29;20202;-96
2023/04/08 00:41:58;;;;;;;35.07;20.77;;;7.90;99.90;;;;;;4899084;29;20225;-96
2023/04/08 00:44:24;;;;;;;34.57;21.87;;;7.90;99.90;;;;;;4898533;29;20207;-96
2023/04/08 00:46:51;;;;;;;36.13;20.33;;;8.00;99.90;;;;;;4912598;29;20199;-95
2023/04/08 00:49:18;;;;;;;36.23;20.70;;;8.00;99.90;;;;;;4913426;29;20225;-95
2023/04/08 00:51:46;;;;;;;30.83;19.60;;;8.00;99.90;;;;;;4907711;29;20206;-96
2023/04/08 00:54:13;;;;;;;35.93;21.40;;;7.90;99.90;;;;;;4904614;29;20195;-95
2023/04/08 00:56:40;;;;;;;33.07;18.70;;;8.00;99.90;;;;;;4904846;29;20208;-95
2023/04/08 00:59:06;;;;;;;35.63;20.87;;;8.00;99.90;;;;;;4905689;29;20230;-96
2023/04/08 01:01:43;;;;;;;40.43;22.27;;;7.90;99.90;;;;;;4912872;29;20203;-95
2023/04/08 01:04:21;;;;;;;39.33;21.83;;;7.90;99.90;;;;;;4914759;29;20204;-96
2023/04/08 01:06:54;;;;;;;35.77;19.87;;;8.00;99.90;;;;;;4914813;29;20223;-95
2023/04/08 01:09:25;;;;;;;41.90;21.93;;;8.00;99.90;;;;;;4911087;29;20199;-95
2023/04/08 01:11:53;;;;;;;40.97;21.87;;;8.00;99.90;;;;;;4906603;29;21000;-95
2023/04/08 01:14:23;;;;;;;40.87;21.83;;;8.00;99.90;;;;;;4905719;29;20207;-96
2023/04/08 01:16:50;;;;;;;38.57;21.67;;;8.00;99.90;;;;;;4914761;29;20206;-95
2023/04/08 01:19:24;;;;;;;38.03;20.83;;;8.00;99.90;;;;;;4913025;29;20214;-94
2023/04/08 01:21:53;;;;;;;40.23;22.03;;;8.00;99.90;;;;;;4914777;29;20197;-95
2023/04/08 01:24:27;;;;;;;37.10;21.00;;;8.00;99.90;;;;;;4903708;29;21008;-96
2023/04/08 01:26:56;;;;;;;42.07;22.30;;;8.00;99.90;;;;;;4918091;29;20211;-95
2023/04/08 01:29:25;;;;;;;41.20;21.00;;;8.00;99.90;;;;;;4915940;29;20202;-96
2023/04/08 01:31:53;;;;;;;42.33;21.57;;;8.10;99.90;;;;;;4906754;29;20203;-95
2023/04/08 01:34:22;;;;;;;37.27;21.97;;;8.10;99.90;;;;;;4909322;29;20672;-95
2023/04/08 01:36:50;;;;;;;37.33;20.90;;;8.10;99.90;;;;;;4914945;29;20210;-96
2023/04/08 01:39:20;;;;;;;44.87;22.20;;;8.10;99.90;;;;;;4904324;29;20225;-95
2023/04/08 01:41:48;;;;;;;40.20;22.57;;;8.10;99.90;;;;;;4915024;29;20282;-96
2023/04/08 01:44:17;;;;;;;40.17;22.13;;;8.10;99.90;;;;;;4914363;29;20191;-94
2023/04/08 01:46:44;;;;;;;46.93;23.47;;;8.10;99.90;;;;;;4907294;29;20223;-95
2023/04/08 01:49:11;;;;;;;43.87;23.90;;;8.10;99.90;;;;;;4911602;29;20592;-96
2023/04/08 01:51:39;;;;;;;41.10;22.70;;;8.10;99.90;;;;;;4914788;29;20213;-95
2023/04/08 01:54:06;;;;;;;46.93;23.70;;;8.10;99.90;;;;;;4919621;29;20204;-96
2023/04/08 01:56:39;;;;;;;43.87;23.20;;;8.20;99.90;;;;;;4921274;29;20229;-96
2023/04/08 01:59:09;;;;;;;46.57;23.67;;;8.10;99.90;;;;;;4921003;29;20215;-96
2023/04/08 02:01:38;;;;;;;47.00;24.53;;;8.20;99.90;;;;;;4933830;29;20206;-96
2023/04/08 02:04:05;;;;;;;45.50;24.03;;;8.10;99.90;;;;;;4927915;29;20210;-96
2023/04/08 02:06:33;;;;;;;46.50;24.53;;;8.10;99.90;;;;;;4907930;29;20202;-96
2023/04/08 02:09:00;;;;;;;48.17;23.70;;;8.10;99.90;;;;;;4902506;29;20206;-96
2023/04/08 02:11:27;;;;;;;48.93;24.83;;;8.20;99.90;;;;;;4916319;29;20207;-96
2023/04/08 02:13:54;;;;;;;46.17;24.07;;;8.20;99.90;;;;;;4914435;29;20325;-96
2023/04/08 02:16:26;;;;;;;48.17;24.93;;;8.20;99.90;;;;;;4914520;29;20197;-96
2023/04/08 02:18:58;;;;;;;44.90;24.80;;;8.20;99.90;;;;;;4917318;29;20219;-96
2023/04/08 02:21:33;;;;;;;50.70;25.50;;;8.20;99.90;;;;;;4916428;29;20652;-96
2023/04/08 02:24:04;;;;;;;46.00;24.87;;;8.20;99.90;;;;;;4908288;29;20198;-96
2023/04/08 02:26:35;;;;;;;47.50;24.73;;;8.20;99.90;;;;;;4900620;29;20660;-95
2023/04/08 02:29:04;;;;;;;46.20;25.97;;;8.30;99.90;;;;;;4915467;29;20203;-95
2023/04/08 02:31:31;;;;;;;44.23;25.70;;;8.30;99.90;;;;;;4909777;29;20210;-96
2023/04/08 02:34:00;;;;;;;50.60;25.13;;;8.30;99.90;;;;;;4906791;29;20219;-96
2023/04/08 02:36:27;;;;;;;48.20;24.23;;;8.30;99.90;;;;;;4906532;29;20315;-96
2023/04/08 02:38:54;;;;;;;46.17;25.20;;;8.30;99.90;;;;;;4904412;29;20220;-96
2023/04/08 02:41:21;;;;;;;50.73;25.90;;;8.30;99.90;;;;;;4918138;29;20202;-96
2023/04/08 02:43:47;;;;;;;48.53;25.93;;;8.30;99.90;;;;;;4918878;29;20214;-96
2023/04/08 02:46:14;;;;;;;52.30;24.53;;;8.30;99.90;;;;;;4917641;29;20235;-96
2023/04/08 02:48:41;;;;;;;53.03;25.73;;;8.20;99.90;;;;;;4910467;29;20203;-96
2023/04/08 02:51:09;;;;;;;48.90;26.37;;;8.30;99.90;;;;;;4903298;29;20680;-96
2023/04/08 02:53:36;;;;;;;54.40;26.50;;;8.30;99.90;;;;;;4906846;29;20258;-96
2023/04/08 02:56:03;;;;;;;55.40;26.80;;;8.30;99.90;;;;;;4904232;29;20202;-96
2023/04/08 02:58:30;;;;;;;54.57;27.33;;;8.30;99.90;;;;;;4908817;29;20215;-96
2023/04/08 03:00:57;;;;;;;51.77;26.00;;;8.30;99.90;;;;;;4906274;29;20214;-96
2023/04/08 03:03:28;;;;;;;55.27;28.07;;;8.30;99.90;;;;;;4906026;29;20199;-96
2023/04/08 03:05:55;;;;;;;52.83;27.23;;;8.30;99.90;;;;;;4904933;29;20232;-96
2023/04/08 03:08:23;;;;;;;56.27;27.77;;;8.30;99.90;;;;;;4909074;29;20198;-95
2023/04/08 03:10:50;;;;;;;60.90;27.80;;;8.40;99.90;;;;;;4912503;29;20213;-96
2023/04/08 03:13:17;;;;;;;57.93;26.77;;;8.30;99.90;;;;;;4913394;29;20208;-96
2023/04/08 03:15:44;;;;;;;65.70;27.40;;;8.40;99.90;;;;;;4908442;29;20204;-96
2023/04/08 03:18:11;;;;;;;61.43;29.43;;;8.30;99.90;;;;;;4917384;29;20220;-95
2023/04/08 03:20:39;;;;;;;55.00;28.30;;;8.30;99.90;;;;;;4905999;29;20227;-96
2023/04/08 03:23:06;;;;;;;60.23;29.37;;;8.30;99.90;;;;;;4919103;29;20235;-96
2023/04/08 03:25:34;;;;;;;62.33;28.10;;;8.30;99.90;;;;;;4915292;29;20248;-96
2023/04/08 03:28:01;;;;;;;71.63;30.83;;;8.30;99.90;;;;;;4917263;29;20225;-96
2023/04/08 03:30:28;;;;;;;61.60;28.60;;;8.30;99.90;;;;;;4921056;29;20191;-96
2023/04/08 03:32:55;;;;;;;60.33;28.50;;;8.30;99.90;;;;;;4930016;29;20226;-96
2023/04/08 03:35:22;;;;;;;63.13;29.73;;;8.30;99.90;;;;;;4926329;29;20191;-96
2023/04/08 03:37:49;;;;;;;66.73;29.37;;;8.30;99.90;;;;;;4922199;29;20214;-96
2023/04/08 03:40:16;;;;;;;69.33;30.03;;;8.30;99.90;;;;;;4919438;29;20196;-96
2023/04/08 03:42:44;;;;;;;63.53;29.00;;;8.20;99.90;;;;;;4921014;29;20207;-96
2023/04/08 03:45:11;;;;;;;67.50;30.00;;;8.20;99.90;;;;;;4916340;29;20203;-96
2023/04/08 03:47:38;;;;;;;64.93;29.20;;;8.20;99.90;;;;;;4918237;29;20656;-96
2023/04/08 03:50:06;;;;;;;64.80;30.07;;;8.20;99.90;;;;;;4905642;29;20656;-96
2023/04/08 03:52:33;;;;;;;65.23;29.57;;;8.10;99.90;;;;;;4910664;29;20295;-96
2023/04/08 03:55:00;;;;;;;69.17;29.53;;;8.10;99.90;;;;;;4916144;29;20286;-96
2023/04/08 03:57:26;;;;;;;66.00;28.67;;;8.10;99.90;;;;;;4918655;29;20209;-96
2023/04/08 03:59:55;;;;;;;72.67;31.00;;;8.00;99.90;;;;;;4919963;29;20218;-96
2023/04/08 04:02:44;;;;;;;66.70;29.30;;;7.90;99.90;;;;;;5034974;23;20228;31
2023/04/08 04:05:11;;;;;;;67.30;29.67;;;7.90;99.90;;;;;;4914821;23;20286;-96
2023/04/08 04:07:38;;;;;;;67.30;28.70;;;7.90;99.90;;;;;;4919624;29;20223;-96
2023/04/08 04:12:43;;;;;;;68.07;29.17;;;7.90;99.90;;;;;;5087059;23;20238;-96
2023/04/08 04:15:12;;;;;;;66.40;30.03;;;7.90;99.90;;;;;;4917124;29;20267;-96
2023/04/08 04:17:39;;;;;;;65.50;30.43;;;7.90;99.90;;;;;;4913845;29;20198;-96
2023/04/08 04:20:07;;;;;;;63.80;29.60;;;7.90;99.90;;;;;;4907391;29;20223;-96
2023/04/08 04:22:34;;;;;;;68.50;29.80;;;7.90;99.90;;;;;;5102027;23;20256;-96
2023/04/08 04:25:01;;;;;;;71.40;30.40;;;7.90;99.90;;;;;;4918011;29;20713;-96
2023/04/08 04:50:40;;;;;;;74.20;32.37;;;8.40;99.90;;;;;;4898652;29;20215;-96
2023/04/08 04:53:07;;;;;;;64.90;28.53;;;8.40;99.90;;;;;;4904004;29;20200;-96
2023/04/08 04:55:34;;;;;;;76.07;32.30;;;8.50;99.90;;;;;;4902797;29;20208;-96
2023/04/08 04:58:01;;;;;;;71.77;31.37;;;8.50;95.50;;;;;;4903701;29;20200;-96
2023/04/08 05:00:28;;;;;;;82.57;31.53;;;8.50;99.90;;;;;;4888402;29;20207;-96
2023/04/08 05:02:55;;;;;;;65.87;32.03;;;8.50;99.90;;;;;;4887225;29;20695;-96
2023/04/08 05:05:22;;;;;;;70.57;31.63;;;8.60;99.90;;;;;;4889640;29;20200;-95
2023/04/08 05:07:50;;;;;;;65.17;30.60;;;8.60;93.50;;;;;;4885834;29;20759;-96
2023/04/08 05:10:17;;;;;;;61.90;29.63;;;8.70;70.80;;;;;;4886961;29;20195;-96
2023/04/08 05:12:44;;;;;;;62.73;28.47;;;8.80;60.00;;;;;;4886202;29;20295;-96
2023/04/08 05:15:11;;;;;;;62.93;29.40;;;8.90;76.80;;;;;;4885452;29;20206;-96
2023/04/08 05:17:38;;;;;;;52.47;27.37;;;9.00;78.20;;;;;;4888302;29;20265;-96
2023/04/08 05:20:06;;;;;;;42.77;23.90;;;9.10;32.00;;;;;;4885868;29;20227;-96
2023/04/08 05:22:34;;;;;;;45.27;24.30;;;9.30;1.00;;;;;;4882467;29;20202;-96
2023/04/08 05:25:02;;;;;;;41.53;23.03;;;9.30;99.90;;;;;;4882047;29;20580;-96
2023/04/08 05:27:29;;;;;;;41.10;20.97;;;9.10;99.90;;;;;;4882212;29;20205;-95
2023/04/08 05:29:56;;;;;;;37.43;20.77;;;9.00;99.90;;;;;;4882414;29;20206;-95
2023/04/08 05:32:22;;;;;;;34.40;20.30;;;8.90;99.90;;;;;;4881905;29;20206;-95
2023/04/08 05:34:49;;;;;;;36.07;19.40;;;8.90;1.00;;;;;;4884314;29;20190;-96
2023/04/08 05:37:16;;;;;;;31.97;19.40;;;9.00;99.90;;;;;;4887791;29;20203;-95
2023/04/08 05:39:43;;;;;;;34.10;19.47;;;8.90;99.90;;;;;;5123084;23;20187;-88
2023/04/08 05:42:12;;;;;;;32.10;18.17;;;9.00;99.90;;;;;;4924319;29;20224;-96
2023/04/08 05:44:42;;;;;;;32.90;18.33;;;9.10;99.90;;;;;;4923804;29;20199;-96
2023/04/08 05:47:09;;;;;;;29.27;18.73;;;9.10;80.10;;;;;;4929628;29;20199;-96
2023/04/08 05:49:36;;;;;;;28.13;17.57;;;9.10;13.70;;;;;;4925949;29;20196;-96
2023/04/08 05:52:04;;;;;;;30.63;18.20;;;9.20;1.00;;;;;;4922482;29;20294;-95
2023/04/08 05:54:30;;;;;;;28.00;17.37;;;9.20;1.00;;;;;;4925639;29;20199;-95
2023/04/08 05:56:57;;;;;;;29.47;18.27;;;9.30;1.00;;;;;;4931446;29;20190;-96
2023/04/08 05:59:26;;;;;;;29.27;18.07;;;9.40;1.00;;;;;;4932227;29;20258;-96
2023/04/08 06:01:54;;;;;;;29.60;18.10;;;9.60;1.00;;;;;;4928778;29;20205;-96
2023/04/08 06:06:48;;;;;;;27.33;17.60;;;9.70;99.90;;;;;;4924053;29;20212;-94
2023/04/08 06:09:14;;;;;;;29.30;16.97;;;9.70;99.90;;;;;;4920491;29;20197;-95
2023/04/08 06:11:41;;;;;;;25.03;16.20;;;9.90;99.90;;;;;;4934779;29;20217;-96
2023/04/08 06:14:08;;;;;;;24.40;15.50;;;10.00;1.00;;;;;;4937797;29;20197;-96
2023/04/08 06:16:36;;;;;;;24.80;16.20;;;9.90;1.00;;;;;;4929138;29;20210;-94
2023/04/08 06:19:03;;;;;;;24.30;15.67;;;9.90;1.00;;;;;;4930758;29;20221;-96
2023/04/08 06:21:30;;;;;;;23.93;15.43;;;9.90;1.00;;;;;;4942577;29;20192;-95
2023/04/08 06:23:57;;;;;;;22.27;14.97;;;9.90;1.00;;;;;;4930338;29;20186;-94
2023/04/08 06:29:02;;;;;;;22.50;14.73;;;9.80;99.90;;;;;;5325638;23;20226;-96
2023/04/08 06:31:40;;;;;;;24.33;14.90;;;9.70;1.00;;;;;;5334260;23;20303;-96
2023/04/08 06:34:07;;;;;;;22.07;14.70;;;9.70;1.00;;;;;;5368761;23;20646;-96
2023/04/08 06:36:34;;;;;;;22.30;14.93;;;9.70;1.00;;;;;;4913803;29;20292;-96
2023/04/08 06:39:00;;;;;;;21.47;14.70;;;9.70;1.00;;;;;;4895687;29;20281;-96
2023/04/08 06:43:55;;;;;;;22.47;15.30;;;9.80;1.00;;;;;;5125554;23;20240;-96
2023/04/08 06:48:50;;;;;;;24.63;15.07;;;9.80;1.00;;;;;;5437866;23;20255;-96
2023/04/08 06:51:17;;;;;;;19.77;14.67;;;9.80;1.00;;;;;;4900530;29;20197;-94
2023/04/08 06:53:44;;;;;;;20.57;14.73;;;9.80;99.90;;;;;;4904345;29;20204;-96
2023/04/08 07:04:01;;;;;;;22.73;14.77;;;9.80;99.90;;;;;;4901046;29;20225;-94
2023/04/08 07:06:27;;;;;;;27.50;16.77;;;9.80;99.90;;;;;;4899669;29;20249;-95
2023/04/08 07:08:54;;;;;;;27.43;18.43;;;9.90;1.00;;;;;;4902786;29;20198;-96
2023/04/08 07:11:21;;;;;;;23.13;15.20;;;10.10;1.00;;;;;;4909167;29;20258;-96
2023/04/08 07:13:48;;;;;;;20.87;14.63;;;10.40;99.90;;;;;;4901114;29;20214;-96
2023/04/08 07:16:15;;;;;;;20.73;13.53;;;10.40;1.00;;;;;;4901537;29;20206;-96
2023/04/08 07:18:42;;;;;;;22.60;14.80;;;10.40;1.00;;;;;;4897404;29;20214;-95
2023/04/08 07:21:11;;;;;;;19.13;13.73;;;10.30;1.00;;;;;;4890353;29;20216;-96
2023/04/08 07:23:38;;;;;;;19.77;13.53;;;10.30;1.00;;;;;;4894751;29;20213;-96
2023/04/08 07:26:05;;;;;;;18.17;12.80;;;10.30;1.00;;;;;;4902949;29;20622;-96
2023/04/08 07:28:32;;;;;;;20.40;13.97;;;10.40;1.00;;;;;;4912220;29;20202;-96
2023/04/08 07:31:10;;;;;;;15.43;11.17;;;10.50;99.90;;;;;;4964638;23;20239;-96
2023/04/08 07:33:36;;;;;;;16.10;10.50;;;10.50;99.90;;;;;;4917491;29;20203;-96
2023/04/08 07:36:04;;;;;;;16.63;11.30;;;10.60;99.90;;;;;;4914045;29;20202;-96
2023/04/08 07:38:32;;;;;;;17.80;12.73;;;10.60;99.90;;;;;;4910366;29;20199;-96
2023/04/08 07:40:59;;;;;;;13.73;10.10;;;10.70;99.90;;;;;;4900552;29;20236;-96
2023/04/08 07:43:26;;;;;;;14.43;10.63;;;10.80;1.00;;;;;;5317239;23;20287;-96
2023/04/08 07:45:53;;;;;;;13.07;10.00;;;10.90;1.00;;;;;;5271682;23;20231;-96
2023/04/08 07:48:19;;;;;;;14.00;10.90;;;11.00;1.00;;;;;;4894660;29;20296;-96
2023/04/08 07:50:46;;;;;;;15.33;11.70;;;11.10;1.00;;;;;;4895650;29;20202;-96
2023/04/08 07:53:13;;;;;;;14.73;11.00;;;11.20;99.90;;;;;;4888446;29;20249;-95
2023/04/08 07:55:41;;;;;;;13.17;9.60;;;11.20;99.90;;;;;;4889344;29;20681;-96
2023/04/08 07:58:08;;;;;;;11.73;8.93;;;11.10;1.00;;;;;;4909158;29;20210;-95
2023/04/08 08:00:36;;;;;;;13.43;10.10;;;11.10;1.00;;;;;;4908583;29;20311;-95
2023/04/08 08:03:02;;;;;;;13.30;9.50;;;11.10;1.00;;;;;;4891231;29;20204;-96
2023/04/08 08:05:29;;;;;;;12.33;9.40;;;11.30;1.00;;;;;;4900432;29;20246;-96
2023/04/08 08:07:56;;;;;;;17.47;12.47;;;11.60;1.00;;;;;;4901192;29;20288;-95
2023/04/08 08:10:23;;;;;;;12.83;9.80;;;11.90;99.90;;;;;;4901020;29;20721;-95
2023/04/08 08:12:51;;;;;;;13.07;9.63;;;12.20;1.00;;;;;;4905176;29;20306;-96
2023/04/08 08:15:18;;;;;;;15.27;10.43;;;12.50;1.00;;;;;;4900751;29;20608;-95
2023/04/08 08:17:45;;;;;;;13.57;9.87;;;12.90;1.00;;;;;;4898857;29;20292;-96
2023/04/08 08:20:12;;;;;;;10.77;8.13;;;13.20;1.00;;;;;;4898305;29;20294;-96
2023/04/08 08:22:39;;;;;;;16.23;11.17;;;13.40;99.90;;;;;;4897944;29;20209;-95
2023/04/08 08:25:08;;;;;;;14.37;11.27;;;13.50;99.90;;;;;;4899936;29;20207;-96
2023/04/08 08:27:35;;;;;;;13.50;10.20;;;13.70;90.80;;;;;;4899672;29;20204;-95
2023/04/08 08:30:04;;;;;;;14.67;10.90;;;13.90;1.00;;;;;;4898964;29;20209;-96
2023/04/08 08:32:31;;;;;;;28.70;22.20;;;14.00;1.00;;;;;;4886175;29;20203;-95
2023/04/08 08:34:58;;;;;;;20.83;15.73;;;14.10;1.00;;;;;;4898251;29;20209;-96
2023/04/08 08:37:25;;;;;;;23.87;16.60;;;14.10;1.00;;;;;;4895661;29;20212;-96
2023/04/08 08:39:52;;;;;;;25.93;18.27;;;14.10;1.00;;;;;;4888863;29;20233;-94
2023/04/08 08:42:20;;;;;;;28.73;22.93;;;14.20;99.90;;;;;;4898315;29;20207;-95
2023/04/08 08:44:47;;;;;;;13.20;10.10;;;14.20;99.90;;;;;;4898971;29;20216;-96
2023/04/08 08:47:15;;;;;;;14.57;10.40;;;14.30;99.90;;;;;;4901588;29;20720;-95
2023/04/08 08:49:42;;;;;;;13.47;9.97;;;14.20;99.90;;;;;;4905135;29;20208;-95
2023/04/08 08:52:10;;;;;;;14.17;10.13;;;14.20;1.00;;;;;;4909775;29;20209;-94
2023/04/08 08:54:37;;;;;;;17.63;12.90;;;13.90;1.00;;;;;;4907640;29;20207;-94
2023/04/08 08:57:04;;;;;;;14.77;10.73;;;13.90;99.90;;;;;;4917196;29;20236;-95
2023/04/08 08:59:31;;;;;;;15.60;11.20;;;14.00;99.90;;;;;;4917470;29;20227;-94
2023/04/08 09:01:57;;;;;;;13.60;9.97;;;14.10;99.90;;;;;;4914386;29;20218;-94
2023/04/08 09:04:26;;;;;;;13.53;10.00;;;14.30;99.90;;;;;;4917201;29;20666;-96
2023/04/08 09:07:09;;;;;;;13.07;9.90;;;14.20;99.90;;;;;;4914789;29;20211;-95
2023/04/08 09:09:48;;;;;;;12.63;9.73;;;14.20;99.90;;;;;;4920882;29;20201;-95
2023/04/08 09:12:15;;;;;;;14.60;9.90;;;14.10;99.90;;;;;;4920459;29;20215;-95
2023/04/08 09:14:42;;;;;;;12.70;9.30;;;14.10;99.90;;;;;;4914847;29;20197;-96
2023/04/08 09:17:09;;;;;;;13.13;9.90;;;14.00;99.90;;;;;;4920697;29;20679;-95
2023/04/08 09:19:37;;;;;;;13.33;9.60;;;14.00;99.90;;;;;;4915241;29;20216;-94
2023/04/08 09:22:08;;;;;;;14.33;10.13;;;13.90;99.90;;;;;;4920873;29;20283;-96
2023/04/08 09:24:36;;;;;;;12.33;9.17;;;13.70;99.90;;;;;;4918572;29;20323;-93
2023/04/08 09:27:03;;;;;;;12.43;9.40;;;13.70;99.90;;;;;;4907138;29;20223;-94
2023/04/08 09:29:30;;;;;;;12.80;9.60;;;13.70;99.90;;;;;;4915207;29;20206;-95
2023/04/08 09:31:58;;;;;;;14.77;9.53;;;13.90;99.90;;;;;;4914819;29;20208;-94
2023/04/08 09:34:26;;;;;;;10.80;8.40;;;14.10;52.40;;;;;;4913171;29;20211;-95
2023/04/08 09:36:55;;;;;;;13.83;8.73;;;14.20;1.00;;;;;;4919718;29;20216;-95
2023/04/08 09:39:22;;;;;;;11.40;8.57;;;14.30;1.00;;;;;;4919595;29;20199;-95
2023/04/08 09:41:50;;;;;;;10.03;7.93;;;14.30;1.00;;;;;;4919977;29;20216;-95
2023/04/08 09:44:20;;;;;;;10.23;7.90;;;14.30;1.00;;;;;;4920785;29;20216;-94
2023/04/08 09:46:56;;;;;;;9.47;7.27;;;14.20;1.00;;;;;;4914444;29;20295;-95
2023/04/08 09:49:27;;;;;;;10.87;8.27;;;14.10;1.00;;;;;;4914747;29;20224;-96
2023/04/08 09:52:06;;;;;;;10.13;7.70;;;14.10;1.00;;;;;;4919582;29;20199;-94
2023/04/08 09:54:47;;;;;;;10.73;8.30;;;14.10;1.00;;;;;;4919197;29;20208;-95
2023/04/08 09:57:20;;;;;;;11.90;8.73;;;14.00;1.00;;;;;;4920108;29;20188;-96
2023/04/08 09:59:53;;;;;;;11.67;8.30;;;13.90;1.00;;;;;;4919786;29;20204;-95
2023/04/08 10:02:26;;;;;;;13.60;9.20;;;13.70;1.00;;;;;;4919501;29;20194;-95
2023/04/08 10:04:57;;;;;;;13.13;9.20;;;13.80;1.00;;;;;;4919586;29;20216;-95
2023/04/08 10:07:25;;;;;;;11.30;8.53;;;14.00;1.00;;;;;;4920020;29;20190;-95
2023/04/08 10:09:52;;;;;;;11.57;8.77;;;14.30;1.00;;;;;;4912370;29;20197;-95
2023/04/08 10:12:19;;;;;;;10.83;8.30;;;14.50;1.00;;;;;;4915680;29;20584;-94
2023/04/08 10:15:20;;;;;;;13.23;8.80;;;14.60;1.00;;;;;;4919891;29;20208;-95
2023/04/08 10:17:47;;;;;;;11.00;8.70;;;14.80;1.00;;;;;;4901590;29;20213;-95
2023/04/08 10:20:44;;;;;;;11.97;8.77;;;15.00;1.00;;;;;;4919985;29;20222;-94
2023/04/08 10:23:13;;;;;;;11.20;7.77;;;15.00;1.00;;;;;;4920096;29;20690;-96
2023/04/08 10:25:41;;;;;;;10.67;8.27;;;15.10;1.00;;;;;;4903011;29;20207;-95
2023/04/08 10:28:26;;;;;;;11.07;8.60;;;15.00;1.00;;;;;;4912145;29;20664;-93
2023/04/08 10:30:54;;;;;;;12.13;8.97;;;14.90;1.00;;;;;;4919246;29;20284;-93
2023/04/08 10:33:24;;;;;;;11.07;8.80;;;15.00;1.00;;;;;;4919424;29;20209;-94
2023/04/08 10:35:54;;;;;;;12.33;9.10;;;14.90;1.00;;;;;;4918496;29;20224;-93
2023/04/08 10:38:22;;;;;;;11.67;9.07;;;14.70;1.00;;;;;;4919584;29;20291;-93
2023/04/08 10:40:50;;;;;;;11.27;9.07;;;14.60;1.00;;;;;;4918869;29;20224;-93
2023/04/08 10:43:18;;;;;;;11.73;9.30;;;14.40;1.00;;;;;;4918809;29;20210;-94
2023/04/08 10:45:49;;;;;;;11.57;8.87;;;14.30;1.00;;;;;;4905561;29;20243;-93
2023/04/08 10:48:17;;;;;;;11.57;8.07;;;14.40;1.00;;;;;;4915377;29;20611;-92
2023/04/08 10:50:51;;;;;;;12.17;9.40;;;14.60;1.00;;;;;;4905535;29;20196;-92
2023/04/08 10:53:18;;;;;;;11.80;9.50;;;14.70;1.00;;;;;;4918801;29;20196;-92
2023/04/08 10:55:46;;;;;;;11.13;9.20;;;14.70;1.00;;;;;;4918189;29;20204;-92
2023/04/08 10:58:13;;;;;;;11.80;9.47;;;14.60;1.00;;;;;;4918462;29;20208;-92
2023/04/08 11:00:40;;;;;;;11.73;8.80;;;14.20;1.00;;;;;;4918388;29;20225;-92
2023/04/08 11:03:09;;;;;;;12.93;9.33;;;13.90;1.00;;;;;;4917045;29;20333;-91
2023/04/08 11:05:37;;;;;;;10.40;8.40;;;13.70;1.00;;;;;;4906424;29;20198;-92
2023/04/08 11:08:04;;;;;;;12.43;9.43;;;13.60;1.00;;;;;;4918333;29;20203;-93
2023/04/08 11:10:36;;;;;;;11.50;9.27;;;13.70;1.00;;;;;;4904171;29;20819;-93
2023/04/08 11:13:07;;;;;;;10.90;8.73;;;13.90;1.00;;;;;;4906413;29;20621;-92
2023/04/08 11:15:35;;;;;;;12.40;9.90;;;14.10;1.00;;;;;;4919009;29;20200;-92
2023/04/08 11:18:03;;;;;;;12.27;9.17;;;14.10;1.00;;;;;;4918352;29;20212;-90
2023/04/08 11:20:29;;;;;;;11.40;8.63;;;14.20;1.00;;;;;;4917557;29;20231;-91
2023/04/08 11:22:57;;;;;;;12.27;9.33;;;14.30;1.00;;;;;;4918415;29;20677;-91
2023/04/08 11:25:24;;;;;;;11.97;9.67;;;14.30;1.00;;;;;;4918223;29;20796;-90
2023/04/08 11:27:51;;;;;;;10.93;9.10;;;14.30;1.00;;;;;;4918722;29;20215;-91
2023/04/08 11:30:19;;;;;;;12.57;9.60;;;14.20;1.00;;;;;;4917824;29;20560;-92
2023/04/08 11:32:46;;;;;;;13.17;9.40;;;14.10;1.00;;;;;;4918488;29;20204;-91
2023/04/08 11:35:12;;;;;;;12.23;9.60;;;14.00;1.00;;;;;;4918475;29;20203;-93
2023/04/08 11:37:40;;;;;;;12.70;9.47;;;14.10;1.00;;;;;;4918152;29;20208;-93
2023/04/08 11:40:09;;;;;;;11.73;9.43;;;14.10;1.00;;;;;;4918260;29;20221;-93
2023/04/08 11:42:36;;;;;;;11.23;8.77;;;14.10;1.00;;;;;;4918521;29;20247;-92
2023/04/08 11:45:10;;;;;;;11.87;8.57;;;14.10;1.00;;;;;;4910193;29;20659;-94
2023/04/08 11:47:39;;;;;;;10.80;8.27;;;14.00;1.00;;;;;;4903122;29;20192;-93
2023/04/08 11:50:07;;;;;;;10.37;7.90;;;13.80;1.00;;;;;;4915284;29;20238;-93
2023/04/08 11:52:44;;;;;;;12.53;9.33;;;13.70;1.00;;;;;;4917613;29;20218;-90
2023/04/08 11:55:11;;;;;;;10.47;8.93;;;13.70;1.00;;;;;;4909734;29;20198;-90
2023/04/08 11:57:38;;;;;;;11.77;9.03;;;13.80;1.00;;;;;;4903739;29;20264;-89
2023/04/08 12:00:06;;;;;;;11.43;8.90;;;13.90;1.00;;;;;;4917261;29;20197;-90
2023/04/08 12:02:33;;;;;;;12.47;9.20;;;14.00;1.00;;;;;;4917267;29;20708;-89
2023/04/08 12:05:02;;;;;;;12.67;9.30;;;14.10;1.00;;;;;;4901120;29;20201;-90
2023/04/08 12:07:29;;;;;;;12.63;10.07;;;14.10;1.00;;;;;;4906435;29;20667;-90
2023/04/08 12:09:56;;;;;;;12.97;9.80;;;14.10;1.00;;;;;;4907790;29;20252;-89
2023/04/08 12:12:23;;;;;;;10.97;8.57;;;14.20;1.00;;;;;;4917337;29;20664;-90
2023/04/08 12:14:49;;;;;;;10.67;8.90;;;14.40;1.00;;;;;;4917362;29;20207;-89
2023/04/08 12:17:16;;;;;;;12.00;9.00;;;14.50;1.00;;;;;;4905292;29;20209;-90
2023/04/08 12:19:43;;;;;;;9.83;8.27;;;14.70;1.00;;;;;;4913875;29;20202;-89
2023/04/08 12:22:11;;;;;;;12.63;9.57;;;14.90;99.90;;;;;;4914993;29;20229;-90
2023/04/08 12:24:38;;;;;;;13.33;9.70;;;14.90;99.90;;;;;;4908427;29;20210;-90
2023/04/08 12:27:05;;;;;;;11.03;8.30;;;14.80;99.90;;;;;;4917346;29;20211;-90
2023/04/08 12:29:32;;;;;;;12.10;9.37;;;14.70;99.90;;;;;;4917582;29;20228;-90
2023/04/08 12:31:58;;;;;;;12.87;9.50;;;14.40;99.90;;;;;;4914754;29;20195;-90
2023/04/08 12:34:25;;;;;;;12.10;9.40;;;14.10;99.90;;;;;;4910311;29;20194;-90
2023/04/08 12:36:52;;;;;;;15.27;9.40;;;14.00;99.90;;;;;;4914401;29;20208;-90
2023/04/08 12:39:20;;;;;;;13.00;9.90;;;13.80;99.90;;;;;;4917836;29;20212;-90
2023/04/08 12:41:47;;;;;;;12.13;9.10;;;13.80;99.90;;;;;;4901495;29;20219;-89
2023/04/08 12:44:13;;;;;;;12.43;9.30;;;13.80;99.90;;;;;;4920484;29;20226;-90
2023/04/08 12:46:40;;;;;;;11.47;9.37;;;13.70;99.90;;;;;;4920522;29;20248;-90
2023/04/08 12:49:07;;;;;;;12.43;9.07;;;13.50;99.90;;;;;;4921033;29;20234;-90
2023/04/08 12:51:34;;;;;;;11.03;8.57;;;13.40;99.90;;;;;;4921100;29;20493;-90
2023/04/08 12:54:02;;;;;;;10.40;8.87;;;13.40;1.00;;;;;;4921050;29;20208;-90
2023/04/08 12:56:30;;;;;;;10.13;8.70;;;13.60;1.00;;;;;;4920897;29;20207;-90
2023/04/08 12:58:57;;;;;;;12.43;9.67;;;13.90;1.00;;;;;;4920916;29;20282;-90
2023/04/08 13:01:24;;;;;;;11.03;8.17;;;14.10;1.00;;;;;;4908234;29;20230;-90
2023/04/08 13:03:51;;;;;;;10.63;8.57;;;14.50;99.90;;;;;;4910067;29;20200;-90
2023/04/08 13:06:17;;;;;;;11.43;9.33;;;14.80;99.90;;;;;;4921087;29;20203;-90
2023/04/08 13:08:44;;;;;;;10.13;8.60;;;15.00;99.90;;;;;;4920487;29;20206;-90
2023/04/08 13:11:11;;;;;;;10.88;8.70;;;15.40;99.90;;;;;;4920792;29;20206;-90
2023/04/08 13:13:39;;;;;;;11.13;8.43;;;15.40;99.90;;;;;;4920523;29;20200;-90
2023/04/08 13:16:06;;;;;;;9.52;7.60;;;15.30;99.90;;;;;;4920441;29;20237;-90
2023/04/08 13:18:33;;;;;;;9.65;7.82;;;15.40;99.90;;;;;;4917647;29;20199;-90
2023/04/08 13:21:00;;;;;;;9.70;7.88;;;15.60;99.90;;;;;;4918635;29;20218;-91
2023/04/08 13:23:26;;;;;;;10.80;8.48;;;15.70;99.90;;;;;;4907042;29;20200;-91
2023/04/08 13:25:53;;;;;;;10.50;8.48;;;15.60;99.90;;;;;;4918072;29;20211;-90
2023/04/08 13:28:20;;;;;;;10.05;8.23;;;15.30;99.90;;;;;;4920103;29;20212;-90